createdAt,value
2019-02-18T00:25:29.979Z,94.00
2019-02-18T00:54:44.312Z,93.70
2019-02-18T00:58:51.006Z,93.50
2019-02-18T01:50:43.569Z,94.00
2019-02-18T01:54:51.063Z,94.10
2019-02-18T02:23:39.932Z,94.20
2019-02-18T02:27:47.439Z,94.10
2019-02-18T02:31:54.121Z,94.20
2019-02-18T02:36:03.205Z,94.00
2019-02-18T02:40:10.520Z,94.00
2019-02-18T02:44:17.691Z,94.40
2019-02-18T02:48:45.926Z,94.00
2019-02-18T02:52:54.788Z,94.10
2019-02-18T02:57:02.617Z,94.10
2019-02-18T03:01:09.547Z,94.20
2019-02-18T03:05:18.799Z,94.20
2019-02-18T03:09:24.870Z,94.40
2019-02-18T03:13:34.246Z,94.30
2019-02-18T04:01:30.992Z,94.80
2019-02-18T04:05:41.727Z,94.60
2019-02-18T04:09:49.296Z,94.90
2019-02-18T04:13:56.779Z,94.80
2019-02-18T04:18:05.184Z,94.70
2019-02-18T05:29:48.582Z,94.50
2019-02-18T05:34:00.796Z,94.70
2019-02-18T05:48:00.932Z,94.30
2019-02-18T06:16:29.084Z,94.40
2019-02-18T06:20:39.903Z,94.20
2019-02-18T06:55:06.336Z,93.30
2019-02-18T06:59:34.033Z,93.10
2019-02-18T07:08:59.148Z,93.10
2019-02-18T07:13:07.313Z,93.00
2019-02-18T07:42:07.013Z,91.70
2019-02-18T07:46:14.492Z,91.50
2019-02-18T07:50:22.192Z,91.30
2019-02-18T07:54:36.478Z,90.50
2019-02-18T07:58:46.970Z,90.30
2019-02-18T08:02:54.963Z,90.50
2019-02-18T08:07:07.304Z,89.50
2019-02-18T08:11:15.067Z,88.90
2019-02-18T08:15:30.998Z,88.60
2019-02-18T08:19:39.430Z,88.20
2019-02-18T08:23:47.455Z,87.40
2019-02-18T08:33:14.403Z,86.10
2019-02-18T08:37:25.492Z,84.60
2019-02-18T08:41:33.133Z,84.50
2019-02-18T08:45:41.961Z,84.40
2019-02-18T09:09:51.215Z,84.80
2019-02-18T09:18:07.728Z,84.70
2019-02-18T09:22:34.854Z,84.80
2019-02-18T09:26:46.580Z,84.10
2019-02-18T09:30:56.205Z,81.90
2019-02-18T09:35:04.745Z,80.00
2019-02-18T09:39:29.996Z,80.80
2019-02-18T09:43:27.712Z,81.00
2019-02-18T09:47:34.128Z,81.40
2019-02-18T09:51:40.699Z,81.00
2019-02-18T09:55:48.260Z,79.80
2019-02-18T09:59:55.903Z,77.90
2019-02-18T10:04:03.784Z,77.70
2019-02-18T10:08:10.651Z,79.10
2019-02-18T10:12:25.520Z,78.70
2019-02-18T10:16:34.132Z,78.60
2019-02-18T10:20:44.936Z,77.60
2019-02-18T10:24:52.879Z,77.00
2019-02-18T10:29:00.888Z,75.90
2019-02-18T10:33:09.175Z,75.50
2019-02-18T10:37:17.330Z,76.00
2019-02-18T10:41:24.118Z,75.70
2019-02-18T10:45:30.857Z,74.70
2019-02-18T10:49:39.501Z,76.30
2019-02-18T10:59:15.499Z,75.10
2019-02-18T11:03:22.908Z,72.90
2019-02-18T11:07:54.426Z,72.30
2019-02-18T11:12:01.174Z,71.00
2019-02-18T11:16:12.908Z,70.50
2019-02-18T11:20:20.674Z,69.00
2019-02-18T11:24:27.822Z,70.80
2019-02-18T11:33:40.611Z,70.30
2019-02-18T11:41:56.690Z,70.90
2019-02-18T11:46:03.098Z,70.20
2019-02-18T12:05:21.483Z,72.00
2019-02-18T12:09:27.940Z,72.20
2019-02-18T12:13:35.046Z,72.20
2019-02-18T13:12:31.006Z,77.10
2019-02-18T13:30:53.054Z,75.80
2019-02-18T13:35:01.003Z,75.50
2019-02-18T14:12:36.228Z,75.90
2019-02-18T14:16:45.910Z,77.60
2019-02-18T14:20:55.037Z,78.70
2019-02-18T14:25:25.666Z,79.70
2019-02-18T14:29:34.377Z,80.00
2019-02-18T14:33:46.894Z,81.40
2019-02-18T14:37:53.557Z,81.70
2019-02-18T14:42:00.356Z,81.90
2019-02-18T14:51:17.134Z,82.40
2019-02-18T14:55:46.788Z,83.10
2019-02-18T15:34:14.640Z,87.30
2019-02-18T15:43:04.649Z,88.80
2019-02-18T15:47:11.506Z,89.30
2019-02-18T16:30:44.336Z,92.50
2019-02-18T16:34:52.276Z,92.50
2019-02-18T16:39:04.197Z,92.40
2019-02-18T16:43:13.015Z,92.60
2019-02-18T16:47:25.301Z,92.70
2019-02-18T16:51:32.171Z,92.50
2019-02-18T16:55:41.075Z,92.50
2019-02-18T17:09:54.836Z,93.80
2019-02-18T17:14:01.284Z,94.10
2019-02-18T17:18:12.915Z,93.70
2019-02-18T17:22:26.026Z,93.70
2019-02-18T17:26:36.666Z,94.10
2019-02-18T17:30:44.132Z,94.20
2019-02-18T17:34:51.483Z,94.20
2019-02-18T17:43:16.388Z,94.40
2019-02-18T17:47:22.536Z,94.30
2019-02-18T17:51:33.495Z,94.30
2019-02-18T17:55:42.534Z,94.50
2019-02-18T18:00:15.183Z,94.70
2019-02-18T18:04:21.646Z,95.00
2019-02-18T18:08:32.172Z,95.20
2019-02-18T18:22:36.246Z,95.80
2019-02-18T18:26:57.962Z,96.10
2019-02-18T18:31:07.312Z,95.80
2019-02-18T18:35:15.143Z,95.70
2019-02-18T18:39:22.441Z,96.00
2019-02-18T18:43:33.827Z,96.00
2019-02-18T18:47:58.301Z,96.80
2019-02-18T18:52:06.786Z,96.10
2019-02-18T18:56:16.195Z,96.50
2019-02-18T19:00:25.869Z,95.50
2019-02-18T19:09:33.991Z,95.60
2019-02-18T19:13:42.201Z,95.60
2019-02-18T19:17:49.500Z,95.70
2019-02-18T19:21:55.986Z,95.80
2019-02-18T19:26:04.198Z,97.20
2019-02-18T19:30:13.583Z,96.30
2019-02-18T19:34:20.626Z,96.20
2019-02-18T19:38:31.151Z,96.30
2019-02-18T19:42:39.419Z,96.30
2019-02-18T19:51:37.152Z,96.40
2019-02-18T19:55:47.335Z,96.50
2019-02-18T19:59:58.570Z,96.60
2019-02-18T20:04:08.036Z,96.90
2019-02-18T20:08:17.909Z,97.00
2019-02-18T20:52:00.474Z,97.10
2019-02-18T20:56:10.553Z,96.90
2019-02-18T21:00:20.594Z,97.70
2019-02-18T21:08:35.234Z,97.20
2019-02-18T21:27:03.849Z,97.70
2019-02-18T21:31:10.380Z,97.80
2019-02-18T21:35:18.860Z,98.00
2019-02-18T21:39:27.949Z,98.00
2019-02-18T21:47:46.440Z,98.30
2019-02-18T21:51:53.618Z,98.20
2019-02-18T21:56:05.457Z,98.30
2019-02-18T23:02:09.998Z,99.00
2019-02-18T23:06:22.105Z,99.30
2019-02-18T23:10:31.038Z,99.20
2019-02-18T23:14:40.820Z,99.10
2019-02-18T23:18:49.549Z,99.10
2019-02-18T23:22:56.370Z,98.90
2019-02-18T23:27:57.307Z,98.80
2019-02-18T23:32:04.094Z,98.70
2019-02-18T23:36:11.278Z,98.80
2019-02-18T23:40:21.350Z,99.10
2019-02-18T23:44:28.568Z,99.10
2019-02-18T23:48:35.104Z,99.10
2019-02-18T23:53:04.377Z,99.10
2019-02-18T23:57:11.092Z,99.10
